Terminal Aerodrome Forecast
Issued by NWS

Home | Current Version | Previous Version | Text Only | Print | Product List | Glossary On
Versions: 1 2 3 4 5 6 7 8 9 10 11 12 13 14 15 16 17 18 19 20 21 22 23 24 25 26 27 28 29 30 31 32 33 34 35 36 37 38 39 40 41 42 43 44 45
883
FTUS46 KOTX 181332 AAA
TAFMWH
TAF AMD
KMWH 181332Z 1814/1912 18010KT 6SM BR BKN005 BKN080
     FM181600 20007KT P6SM SCT010 BKN080
     FM182000 21009KT P6SM BKN070 OVC100
     FM190100 21006KT P6SM SCT070 SCT120=

USA.gov is the U.S. government's official web portal to all federal, state and local government web resources and services.